^^
Saratoga-Weather Station Historical Data
Daily Summary for May 2, 2021 Units:  Metric    English   Both
Daily Weekly Monthly Yearly Custom
  High: Low: Average:
Temperature: 25.1 °C 11.7 °C 17.9 °C
Dew Point: 14.4 °C 10.4 °C 12.4 °C
Humidity: 92% 47% 73%
Wind Speed: 16.3km/h 0km/h 2.8km/h
Wind Gust: 22.5km/h - -
Wind- - SE
Pressure: 1025.1 hPa 1020.3 hPa -
Precipitation: 0.0 mm    
Historical Graphs
 
 
Tabular Data for May 2, 2021
Time Temperature Dew Point Pressure Wind Wind Speed Wind Gust Humidity Rainfall Rate (Hourly) solar
00:04 14.3 °C 11.5 °C 1025.1 hPa Calm   1.6 km/h 83% 0.0 mm 0 W/m2
00:09 14.2 °C 11.4 °C 1025.1 hPa NW 1.4 km/h 4.8 km/h 83% 0.0 mm 0 W/m2
00:14 14.1 °C 11.4 °C 1025.1 hPa West 1.4 km/h 3.2 km/h 84% 0.0 mm 0 W/m2
00:19 14 °C 11.3 °C 1025.1 hPa Calm   4.8 km/h 84% 0.0 mm 0 W/m2
00:24 13.8 °C 11.1 °C 1025.1 hPa Calm   3.2 km/h 84% 0.0 mm 0 W/m2
00:29 13.7 °C 11.2 °C 1025.1 hPa West 1.4 km/h 3.2 km/h 85% 0.0 mm 0 W/m2
00:34 13.6 °C 11.1 °C 1025.1 hPa Calm   1.6 km/h 85% 0.0 mm 0 W/m2
00:39 13.4 °C 11.1 °C 1025.1 hPa Calm   3.2 km/h 86% 0.0 mm 0 W/m2
00:44 13.4 °C 11.1 °C 1025.1 hPa NW 3.2 km/h 3.2 km/h 86% 0.0 mm 0 W/m2
00:49 13.3 °C 11 °C 1025.1 hPa NW 1.4 km/h 3.2 km/h 86% 0.0 mm 0 W/m2
00:55 13.2 °C 10.9 °C 1025.1 hPa Calm   3.2 km/h 86% 0.0 mm 0 W/m2
01:00 13.2 °C 11.1 °C 1025.1 hPa West 1.4 km/h 3.2 km/h 87% 0.0 mm 0 W/m2
01:20 13.3 °C 11.2 °C 1025.1 hPa NW 3.2 km/h 3.2 km/h 87% 0.0 mm 0 W/m2
01:25 13.3 °C 11.2 °C 1025.1 hPa WSW 3.2 km/h 4.8 km/h 87% 0.0 mm 0 W/m2
01:30 13.3 °C 11.2 °C 1025.1 hPa Calm   3.2 km/h 87% 0.0 mm 0 W/m2
01:35 13.3 °C 11.2 °C 1025.1 hPa West 1.4 km/h 3.2 km/h 87% 0.0 mm 0 W/m2
01:40 13.3 °C 11 °C 1025.1 hPa Calm   1.6 km/h 86% 0.0 mm 0 W/m2
01:45 13.3 °C 11.2 °C 1025.1 hPa SW 1.4 km/h 3.2 km/h 87% 0.0 mm 0 W/m2
01:50 13.3 °C 11.2 °C 1025.1 hPa Calm   3.2 km/h 87% 0.0 mm 0 W/m2
01:55 13.2 °C 11.1 °C 1025.1 hPa WNW 1.4 km/h 4.8 km/h 87% 0.0 mm 0 W/m2
02:00 13.2 °C 11.1 °C 1025.1 hPa WNW 1.4 km/h 6.4 km/h 87% 0.0 mm 0 W/m2
02:05 13.2 °C 11.1 °C 1025.1 hPa WNW 3.2 km/h 3.2 km/h 87% 0.0 mm 0 W/m2
02:10 13.1 °C 11 °C 1025.1 hPa West 4.7 km/h 4.8 km/h 87% 0.0 mm 0 W/m2
02:15 13.1 °C 11 °C 1025.1 hPa WNW 1.4 km/h 3.2 km/h 87% 0.0 mm 0 W/m2
02:32 12.9 °C 11 °C 1024.7 hPa West 3.2 km/h 3.2 km/h 88% 0.0 mm 0 W/m2
02:37 12.9 °C 11 °C 1024.7 hPa Calm   3.2 km/h 88% 0.0 mm 0 W/m2
02:42 12.8 °C 10.9 °C 1024.7 hPa Calm   1.6 km/h 88% 0.0 mm 0 W/m2
02:47 12.7 °C 10.8 °C 1024.7 hPa Calm   3.2 km/h 88% 0.0 mm 0 W/m2
02:52 12.7 °C 10.9 °C 1024.7 hPa Calm   1.6 km/h 89% 0.0 mm 0 W/m2
03:12 12.6 °C 11 °C 1024.4 hPa Calm   3.2 km/h 90% 0.0 mm 0 W/m2
03:17 12.6 °C 11 °C 1024.4 hPa North 4.7 km/h 4.8 km/h 90% 0.0 mm 0 W/m2
03:22 12.7 °C 11.1 °C 1024.4 hPa WNW 1.4 km/h 3.2 km/h 90% 0.0 mm 0 W/m2
03:27 12.7 °C 11.1 °C 1024.4 hPa WNW 1.4 km/h 3.2 km/h 90% 0.0 mm 0 W/m2
03:32 12.6 °C 11 °C 1024.4 hPa Calm   1.6 km/h 90% 0.0 mm 0 W/m2
03:37 12.6 °C 11 °C 1024.4 hPa WNW 1.4 km/h 3.2 km/h 90% 0.0 mm 0 W/m2
03:42 12.5 °C 10.9 °C 1024.0 hPa NW 1.4 km/h 4.8 km/h 90% 0.0 mm 0 W/m2
03:47 12.6 °C 11 °C 1024.0 hPa Calm   1.6 km/h 90% 0.0 mm 0 W/m2
03:52 12.5 °C 10.9 °C 1024.0 hPa Calm   4.8 km/h 90% 0.0 mm 0 W/m2
03:57 12.4 °C 10.8 °C 1024.0 hPa NW 1.4 km/h 3.2 km/h 90% 0.0 mm 0 W/m2
04:13 12.3 °C 10.9 °C 1024.0 hPa SE 1.4 km/h 1.6 km/h 91% 0.0 mm 0 W/m2
04:18 12.3 °C 10.9 °C 1024.0 hPa Calm   3.2 km/h 91% 0.0 mm 0 W/m2
04:23 12.3 °C 10.9 °C 1024.0 hPa SW 3.2 km/h 4.8 km/h 91% 0.0 mm 0 W/m2
04:28 12.3 °C 10.9 °C 1024.0 hPa Calm   1.6 km/h 91% 0.0 mm 0 W/m2
04:33 12.2 °C 10.8 °C 1024.0 hPa NE 1.4 km/h 3.2 km/h 91% 0.0 mm 0 W/m2
04:38 12.2 °C 10.9 °C 1024.0 hPa North 1.4 km/h 3.2 km/h 92% 0.0 mm 0 W/m2
04:43 12.3 °C 11 °C 1024.0 hPa NE 1.4 km/h 4.8 km/h 92% 0.0 mm 0 W/m2
04:48 12.2 °C 10.8 °C 1024.0 hPa NNE 1.4 km/h 3.2 km/h 91% 0.0 mm 0 W/m2
04:53 12.3 °C 10.9 °C 1024.0 hPa Calm   3.2 km/h 91% 0.0 mm 0 W/m2
04:58 12.2 °C 10.8 °C 1024.0 hPa Calm     91% 0.0 mm 0 W/m2
05:03 12.2 °C 10.8 °C 1024.0 hPa North 1.4 km/h 4.8 km/h 91% 0.0 mm 0 W/m2
05:08 12.2 °C 10.8 °C 1023.7 hPa NE 1.4 km/h 1.6 km/h 91% 0.0 mm 0 W/m2
05:13 12.1 °C 10.7 °C 1024.0 hPa NE 1.4 km/h 4.8 km/h 91% 0.0 mm 0 W/m2
05:18 12.1 °C 10.8 °C 1024.0 hPa Calm   4.8 km/h 92% 0.0 mm 0 W/m2
05:23 12.1 °C 10.8 °C 1024.0 hPa Calm   1.6 km/h 92% 0.0 mm 0 W/m2
05:28 12.1 °C 10.8 °C 1024.0 hPa Calm   1.6 km/h 92% 0.0 mm 0 W/m2
05:33 12.1 °C 10.8 °C 1024.0 hPa Calm   3.2 km/h 92% 0.0 mm 0 W/m2
05:38 12.1 °C 10.8 °C 1024.0 hPa Calm   1.6 km/h 92% 0.0 mm 0 W/m2
05:44 12.1 °C 10.8 °C 1023.7 hPa Calm   3.2 km/h 92% 0.0 mm 0 W/m2
05:49 12 °C 10.7 °C 1024.0 hPa NNE 3.2 km/h 3.2 km/h 92% 0.0 mm 0 W/m2
05:54 11.9 °C 10.6 °C 1024.0 hPa Calm   3.2 km/h 92% 0.0 mm 0 W/m2
05:59 11.9 °C 10.6 °C 1024.0 hPa Calm   1.6 km/h 92% 0.0 mm 0 W/m2
06:04 11.9 °C 10.6 °C 1024.0 hPa Calm     92% 0.0 mm 0 W/m2
06:09 11.8 °C 10.5 °C 1024.0 hPa Calm   1.6 km/h 92% 0.0 mm 0 W/m2
06:29 11.8 °C 10.5 °C 1024.0 hPa Calm   3.2 km/h 92% 0.0 mm 0 W/m2
06:34 11.8 °C 10.5 °C 1024.0 hPa NNE 6.4 km/h 6.4 km/h 92% 0.0 mm 0 W/m2
06:39 11.8 °C 10.5 °C 1024.0 hPa NNW 1.4 km/h 3.2 km/h 92% 0.0 mm 0 W/m2
06:44 11.8 °C 10.5 °C 1024.0 hPa Calm   3.2 km/h 92% 0.0 mm 0 W/m2
06:49 11.8 °C 10.5 °C 1024.0 hPa NE 4.7 km/h 4.8 km/h 92% 0.0 mm 0 W/m2
06:54 11.7 °C 10.4 °C 1024.0 hPa Calm   3.2 km/h 92% 0.0 mm 0 W/m2
06:59 11.7 °C 10.4 °C 1024.0 hPa Calm   3.2 km/h 92% 0.0 mm 5 W/m2
07:04 11.7 °C 10.4 °C 1024.0 hPa ENE 1.4 km/h 1.6 km/h 92% 0.0 mm 9 W/m2
07:09 11.7 °C 10.4 °C 1024.0 hPa Calm   3.2 km/h 92% 0.0 mm 11 W/m2
07:14 11.7 °C 10.4 °C 1024.0 hPa Calm   1.6 km/h 92% 0.0 mm 14 W/m2
07:19 11.7 °C 10.4 °C 1024.0 hPa Calm   3.2 km/h 92% 0.0 mm 16 W/m2
07:24 11.7 °C 10.4 °C 1024.0 hPa Calm   1.6 km/h 92% 0.0 mm 18 W/m2
07:29 11.7 °C 10.4 °C 1024.0 hPa Calm   1.6 km/h 92% 0.0 mm 21 W/m2
07:32 11.7 °C 10.4 °C 1024.0 hPa Calm     92% 0.0 mm 23 W/m2
07:38 11.8 °C 10.5 °C 1024.0 hPa Calm   1.6 km/h 92% 0.0 mm 25 W/m2
07:43 11.8 °C 10.5 °C 1024.0 hPa SSW 1.4 km/h 1.6 km/h 92% 0.0 mm 26 W/m2
07:48 11.8 °C 10.5 °C 1024.0 hPa WNW 1.4 km/h 3.2 km/h 92% 0.0 mm 30 W/m2
07:53 11.8 °C 10.5 °C 1024.0 hPa Calm   3.2 km/h 92% 0.0 mm 32 W/m2
07:58 11.9 °C 10.6 °C 1024.0 hPa WNW 3.2 km/h 4.8 km/h 92% 0.0 mm 33 W/m2
08:03 12 °C 10.7 °C 1024.0 hPa NNE 1.4 km/h 4.8 km/h 92% 0.0 mm 35 W/m2
08:08 12.1 °C 10.8 °C 1024.0 hPa Calm   1.6 km/h 92% 0.0 mm 37 W/m2
08:13 12.1 °C 10.8 °C 1024.0 hPa NNW 1.4 km/h 4.8 km/h 92% 0.0 mm 42 W/m2
08:18 12.2 °C 10.9 °C 1024.0 hPa Calm     92% 0.0 mm 76 W/m2
08:23 12.3 °C 11 °C 1024.0 hPa NW 3.2 km/h 6.4 km/h 92% 0.0 mm 120 W/m2
08:28 12.4 °C 11 °C 1024.0 hPa Calm   1.6 km/h 91% 0.0 mm 144 W/m2
08:33 12.6 °C 11.2 °C 1024.0 hPa NE 1.4 km/h 6.4 km/h 91% 0.0 mm 162 W/m2
08:38 12.8 °C 11.4 °C 1024.0 hPa North 3.2 km/h 3.2 km/h 91% 0.0 mm 176 W/m2
08:43 12.9 °C 11.3 °C 1024.0 hPa NE 3.2 km/h 6.4 km/h 90% 0.0 mm 193 W/m2
08:48 13.1 °C 11.5 °C 1024.0 hPa Calm   4.8 km/h 90% 0.0 mm 213 W/m2
08:53 13.3 °C 11.5 °C 1024.0 hPa NW 1.4 km/h 4.8 km/h 89% 0.0 mm 223 W/m2
08:58 13.4 °C 11.6 °C 1024.0 hPa Calm   6.4 km/h 89% 0.0 mm 237 W/m2
09:03 13.6 °C 11.6 °C 1024.0 hPa SE 3.2 km/h 6.4 km/h 88% 0.0 mm 253 W/m2
09:08 13.8 °C 11.7 °C 1024.0 hPa NE 3.2 km/h 3.2 km/h 87% 0.0 mm 81 W/m2
09:13 13.9 °C 11.8 °C 1024.0 hPa Calm   4.8 km/h 87% 0.0 mm 54 W/m2
09:18 14 °C 11.7 °C 1024.0 hPa ENE 3.2 km/h 9.7 km/h 86% 0.0 mm 295 W/m2
09:23 14.2 °C 11.9 °C 1024.0 hPa ENE 3.2 km/h 6.4 km/h 86% 0.0 mm 311 W/m2
09:28 14.3 °C 12 °C 1024.0 hPa ENE 3.2 km/h 8 km/h 86% 0.0 mm 332 W/m2
09:33 14.6 °C 12.1 °C 1024.0 hPa Calm   6.4 km/h 85% 0.0 mm 346 W/m2
09:38 14.9 °C 12.2 °C 1024.0 hPa NNE 1.4 km/h 4.8 km/h 84% 0.0 mm 359 W/m2
09:43 15.2 °C 12.5 °C 1024.0 hPa East 1.4 km/h 8 km/h 84% 0.0 mm 374 W/m2
09:48 15.4 °C 12.5 °C 1024.0 hPa East 7.9 km/h 12.9 km/h 83% 0.0 mm 388 W/m2
09:53 15.6 °C 12.5 °C 1024.0 hPa East 4.7 km/h 4.8 km/h 82% 0.0 mm 403 W/m2
09:58 15.8 °C 12.4 °C 1024.0 hPa ENE 3.2 km/h 6.4 km/h 80% 0.0 mm 417 W/m2
10:03 16.1 °C 12.6 °C 1024.0 hPa NE 1.4 km/h 8 km/h 80% 0.0 mm 429 W/m2
10:08 16.2 °C 12.6 °C 1024.0 hPa SE 6.4 km/h 14.5 km/h 79% 0.0 mm 443 W/m2
10:13 16.4 °C 12.7 °C 1024.0 hPa SE 7.9 km/h 11.3 km/h 79% 0.0 mm 454 W/m2
10:18 16.6 °C 12.7 °C 1024.0 hPa ENE 3.2 km/h 12.9 km/h 78% 0.0 mm 468 W/m2
10:23 16.6 °C 12.7 °C 1024.0 hPa ENE 3.2 km/h 4.8 km/h 78% 0.0 mm 478 W/m2
10:28 16.8 °C 12.9 °C 1024.0 hPa East 6.4 km/h 6.4 km/h 78% 0.0 mm 490 W/m2
10:33 17.1 °C 13 °C 1024.0 hPa NE 1.4 km/h 4.8 km/h 77% 0.0 mm 504 W/m2
10:38 17.2 °C 13.1 °C 1024.0 hPa WNW 4.7 km/h 6.4 km/h 77% 0.0 mm 517 W/m2
10:43 17.3 °C 13 °C 1024.0 hPa East 4.7 km/h 6.4 km/h 76% 0.0 mm 529 W/m2
10:48 17.6 °C 13.3 °C 1024.0 hPa NE 1.4 km/h 14.5 km/h 76% 0.0 mm 540 W/m2
10:53 17.8 °C 13.3 °C 1024.0 hPa East 1.4 km/h 4.8 km/h 75% 0.0 mm 554 W/m2
10:58 18.1 °C 13.6 °C 1024.0 hPa ESE 3.2 km/h 14.5 km/h 75% 0.0 mm 566 W/m2
11:03 18.3 °C 13.6 °C 1024.0 hPa East 1.4 km/h 6.4 km/h 74% 0.0 mm 573 W/m2
11:08 18.6 °C 13.5 °C 1024.0 hPa ENE 3.2 km/h 9.7 km/h 72% 0.0 mm 584 W/m2
11:13 18.7 °C 13.5 °C 1024.0 hPa ENE 3.2 km/h 8 km/h 72% 0.0 mm 594 W/m2
11:18 18.9 °C 13.7 °C 1023.7 hPa ENE 6.4 km/h 12.9 km/h 72% 0.0 mm 605 W/m2
11:23 19.2 °C 14.2 °C 1023.7 hPa ENE 3.2 km/h 8 km/h 73% 0.0 mm 615 W/m2
11:28 19.3 °C 13.9 °C 1023.4 hPa East 3.2 km/h 12.9 km/h 71% 0.0 mm 624 W/m2
11:33 19.4 °C 13.8 °C 1023.4 hPa SE 3.2 km/h 8 km/h 70% 0.0 mm 633 W/m2
11:38 19.6 °C 14 °C 1023.4 hPa East 6.4 km/h 11.3 km/h 70% 0.0 mm 642 W/m2
11:43 19.8 °C 13.9 °C 1023.4 hPa East 4.7 km/h 11.3 km/h 69% 0.0 mm 645 W/m2
11:48 19.9 °C 14.3 °C 1023.4 hPa NE 3.2 km/h 6.4 km/h 70% 0.0 mm 650 W/m2
11:53 20.3 °C 14.4 °C 1023.4 hPa North 1.4 km/h 8 km/h 69% 0.0 mm 664 W/m2
11:58 20.5 °C 14.4 °C 1023.4 hPa ENE 1.4 km/h 16.1 km/h 68% 0.0 mm 670 W/m2
12:03 20.6 °C 14 °C 1023.0 hPa ENE 6.4 km/h 11.3 km/h 66% 0.0 mm 680 W/m2
12:08 21 °C 13.9 °C 1023.0 hPa NNE 4.7 km/h 22.5 km/h 64% 0.0 mm 679 W/m2
12:13 21.3 °C 14 °C 1023.0 hPa NE 4.7 km/h 12.9 km/h 63% 0.0 mm 694 W/m2
12:18 21.7 °C 13.6 °C 1023.0 hPa SE 3.2 km/h 22.5 km/h 60% 0.0 mm 701 W/m2
12:23 22.1 °C 13.7 °C 1023.0 hPa ESE 3.2 km/h 11.3 km/h 59% 0.0 mm 710 W/m2
12:28 22.3 °C 13.4 °C 1022.7 hPa ENE 4.7 km/h 12.9 km/h 57% 0.0 mm 717 W/m2
12:33 22.4 °C 13.5 °C 1022.7 hPa East 16.3 km/h 19.3 km/h 57% 0.0 mm 717 W/m2
12:38 22.4 °C 13.2 °C 1022.7 hPa NE 3.2 km/h 11.3 km/h 56% 0.0 mm 721 W/m2
12:43 22.4 °C 13.7 °C 1022.7 hPa ENE 6.4 km/h 11.3 km/h 58% 0.0 mm 724 W/m2
12:48 22.4 °C 13.5 °C 1022.7 hPa East 4.7 km/h 12.9 km/h 57% 0.0 mm 728 W/m2
12:53 22.6 °C 13.4 °C 1022.7 hPa SE 4.7 km/h 11.3 km/h 56% 0.0 mm 731 W/m2
12:58 22.8 °C 13.6 °C 1022.7 hPa East 1.4 km/h 11.3 km/h 56% 0.0 mm 737 W/m2
13:03 23 °C 13.7 °C 1022.7 hPa East 4.7 km/h 11.3 km/h 56% 0.0 mm 737 W/m2
13:08 22.9 °C 13.1 °C 1022.7 hPa SE 4.7 km/h 16.1 km/h 54% 0.0 mm 744 W/m2
13:13 22.8 °C 13.3 °C 1022.7 hPa ESE 13 km/h 12.9 km/h 55% 0.0 mm 737 W/m2
13:18 23 °C 13.2 °C 1022.7 hPa East 6.4 km/h 9.7 km/h 54% 0.0 mm 744 W/m2
13:23 23.1 °C 12.7 °C 1022.7 hPa ENE 3.2 km/h 16.1 km/h 52% 0.0 mm 749 W/m2
13:28 23.2 °C 13.1 °C 1022.7 hPa SSE 6.4 km/h 8 km/h 53% 0.0 mm 745 W/m2
13:33 23.3 °C 12.9 °C 1022.7 hPa SE 4.7 km/h 12.9 km/h 52% 0.0 mm 754 W/m2
13:39 23.4 °C 13.6 °C 1022.7 hPa SE 11.1 km/h 11.3 km/h 54% 0.0 mm 754 W/m2
13:44 23.6 °C 13.2 °C 1022.7 hPa ESE 4.7 km/h 12.9 km/h 52% 0.0 mm 752 W/m2
13:49 23.8 °C 13.4 °C 1022.7 hPa ENE 6.4 km/h 12.9 km/h 52% 0.0 mm 751 W/m2
13:54 23.8 °C 13.4 °C 1022.7 hPa SSW 6.4 km/h 11.3 km/h 52% 0.0 mm 751 W/m2
13:59 23.7 °C 13.3 °C 1022.4 hPa East 3.2 km/h 16.1 km/h 52% 0.0 mm 754 W/m2
14:04 23.7 °C 12.7 °C 1022.7 hPa ENE 6.4 km/h 19.3 km/h 50% 0.0 mm 751 W/m2
14:09 23.6 °C 12.9 °C 1022.4 hPa SW 1.4 km/h 6.4 km/h 51% 0.0 mm 754 W/m2
14:14 23.6 °C 13.2 °C 1022.4 hPa East 3.2 km/h 19.3 km/h 52% 0.0 mm 751 W/m2
14:19 23.6 °C 13.2 °C 1022.4 hPa NE 4.7 km/h 14.5 km/h 52% 0.0 mm 751 W/m2
14:24 23.7 °C 13.8 °C 1022.4 hPa ESE 6.4 km/h 6.4 km/h 54% 0.0 mm 747 W/m2
14:29 23.9 °C 13.4 °C 1022.7 hPa SE 6.4 km/h 11.3 km/h 52% 0.0 mm 744 W/m2
14:34 24.1 °C 13.9 °C 1022.4 hPa NE 4.7 km/h 12.9 km/h 53% 0.0 mm 738 W/m2
14:39 24.1 °C 13.6 °C 1022.4 hPa NNW 3.2 km/h 11.3 km/h 52% 0.0 mm 737 W/m2
14:44 24.2 °C 14 °C 1022.4 hPa ENE 3.2 km/h 4.8 km/h 53% 0.0 mm 733 W/m2
14:49 24.3 °C 13.2 °C 1022.4 hPa SSE 3.2 km/h 14.5 km/h 50% 0.0 mm 737 W/m2
14:54 24.3 °C 13.5 °C 1022.4 hPa NNE 1.4 km/h 8 km/h 51% 0.0 mm 714 W/m2
14:59 24.4 °C 13.9 °C 1022.4 hPa SE 6.4 km/h 14.5 km/h 52% 0.0 mm 715 W/m2
15:04 24.3 °C 13.8 °C 1022.4 hPa ENE 6.4 km/h 16.1 km/h 52% 0.0 mm 719 W/m2
15:09 24.3 °C 13.5 °C 1022.4 hPa East 6.4 km/h 9.7 km/h 51% 0.0 mm 710 W/m2
15:14 24.2 °C 13.7 °C 1022.4 hPa East 1.4 km/h 11.3 km/h 52% 0.0 mm 694 W/m2
15:19 24.2 °C 13.7 °C 1022.4 hPa SE 3.2 km/h 11.3 km/h 52% 0.0 mm 693 W/m2
15:24 24.2 °C 13.4 °C 1022.0 hPa North 4.7 km/h 19.3 km/h 51% 0.0 mm 691 W/m2
15:29 24.3 °C 14.1 °C 1022.0 hPa NE 6.4 km/h 11.3 km/h 53% 0.0 mm 680 W/m2
15:34 24.3 °C 13.8 °C 1022.0 hPa ENE 4.7 km/h 19.3 km/h 52% 0.0 mm 668 W/m2
15:39 24.3 °C 14.1 °C 1022.0 hPa NE 9.7 km/h 11.3 km/h 53% 0.0 mm 552 W/m2
15:44 24.2 °C 13.7 °C 1022.0 hPa ENE 7.9 km/h 12.9 km/h 52% 0.0 mm 652 W/m2
15:49 24.2 °C 14 °C 1022.0 hPa East 11.1 km/h 14.5 km/h 53% 0.0 mm 640 W/m2
15:54 24.3 °C 14.1 °C 1021.7 hPa East 7.9 km/h 12.9 km/h 53% 0.0 mm 635 W/m2
15:59 24.2 °C 13.7 °C 1021.7 hPa NE 4.7 km/h 12.9 km/h 52% 0.0 mm 615 W/m2
16:04 24.2 °C 13.7 °C 1021.7 hPa ENE 6.4 km/h 12.9 km/h 52% 0.0 mm 619 W/m2
16:09 24.3 °C 13.8 °C 1021.7 hPa ESE 6.4 km/h 12.9 km/h 52% 0.0 mm 606 W/m2
16:14 24.4 °C 14.2 °C 1021.7 hPa NNE 7.9 km/h 8 km/h 53% 0.0 mm 601 W/m2
16:19 24.5 °C 14 °C 1021.7 hPa SSE 4.7 km/h 14.5 km/h 52% 0.0 mm 589 W/m2
16:24 24.6 °C 14.1 °C 1021.7 hPa ENE 6.4 km/h 14.5 km/h 52% 0.0 mm 580 W/m2
16:29 24.7 °C 14.2 °C 1021.7 hPa ESE 3.2 km/h 9.7 km/h 52% 0.0 mm 571 W/m2
16:34 24.8 °C 14 °C 1021.3 hPa ENE 3.2 km/h 6.4 km/h 51% 0.0 mm 559 W/m2
16:39 24.9 °C 13.8 °C 1021.3 hPa East 4.7 km/h 14.5 km/h 50% 0.0 mm 555 W/m2
16:44 24.8 °C 13.4 °C 1021.3 hPa ENE 4.7 km/h 12.9 km/h 49% 0.0 mm 538 W/m2
16:49 24.8 °C 13.4 °C 1021.3 hPa NE 4.7 km/h 12.9 km/h 49% 0.0 mm 529 W/m2
16:54 24.8 °C 13.4 °C 1021.3 hPa Calm   9.7 km/h 49% 0.0 mm 517 W/m2
16:59 25.1 °C 13.9 °C 1021.3 hPa ENE 3.2 km/h 12.9 km/h 50% 0.0 mm 504 W/m2
17:04 24.9 °C 13.1 °C 1021.3 hPa ENE 14.3 km/h 14.5 km/h 48% 0.0 mm 489 W/m2
17:09 24.8 °C 13.4 °C 1021.3 hPa SE 4.7 km/h 16.1 km/h 49% 0.0 mm 480 W/m2
17:14 24.8 °C 13 °C 1021.3 hPa East 3.2 km/h 9.7 km/h 48% 0.0 mm 466 W/m2
17:19 24.9 °C 13.5 °C 1021.0 hPa North 6.4 km/h 12.9 km/h 49% 0.0 mm 452 W/m2
17:24 24.8 °C 13 °C 1021.0 hPa NE 6.4 km/h 9.7 km/h 48% 0.0 mm 446 W/m2
17:29 24.8 °C 13 °C 1021.3 hPa ENE 1.4 km/h 12.9 km/h 48% 0.0 mm 422 W/m2
17:34 24.9 °C 13.5 °C 1021.0 hPa ESE 9.7 km/h 11.3 km/h 49% 0.0 mm 408 W/m2
17:39 24.9 °C 12.8 °C 1021.3 hPa SE 6.4 km/h 11.3 km/h 47% 0.0 mm 401 W/m2
17:44 24.8 °C 13.7 °C 1021.0 hPa ESE 9.7 km/h 16.1 km/h 50% 0.0 mm 385 W/m2
17:49 24.8 °C 13 °C 1021.0 hPa East 1.4 km/h 16.1 km/h 48% 0.0 mm 371 W/m2
17:54 24.7 °C 13 °C 1021.0 hPa ENE 9.7 km/h 14.5 km/h 48% 0.0 mm 360 W/m2
17:59 24.7 °C 13 °C 1021.0 hPa ENE 3.2 km/h 16.1 km/h 48% 0.0 mm 343 W/m2
18:04 24.7 °C 13 °C 1021.0 hPa East 3.2 km/h 8 km/h 48% 0.0 mm 329 W/m2
18:09 24.6 °C 12.9 °C 1021.0 hPa NE 4.7 km/h 16.1 km/h 48% 0.0 mm 316 W/m2
18:14 24.4 °C 13 °C 1021.0 hPa ESE 3.2 km/h 11.3 km/h 49% 0.0 mm 299 W/m2
18:19 24.4 °C 13.3 °C 1021.0 hPa ESE 3.2 km/h 14.5 km/h 50% 0.0 mm 285 W/m2
18:24 24.4 °C 12.7 °C 1020.7 hPa SSE 3.2 km/h 14.5 km/h 48% 0.0 mm 271 W/m2
18:29 24.2 °C 12.8 °C 1020.7 hPa East 9.7 km/h 9.7 km/h 49% 0.0 mm 258 W/m2
18:34 24.1 °C 13 °C 1020.7 hPa ESE 3.2 km/h 6.4 km/h 50% 0.0 mm 241 W/m2
18:39 24 °C 12.9 °C 1020.7 hPa East 4.7 km/h 14.5 km/h 50% 0.0 mm 227 W/m2
18:44 23.9 °C 12.8 °C 1020.7 hPa SE 3.2 km/h 17.7 km/h 50% 0.0 mm 211 W/m2
18:49 23.8 °C 13.1 °C 1020.7 hPa East 1.4 km/h 8 km/h 51% 0.0 mm 197 W/m2
18:54 23.7 °C 13.3 °C 1020.7 hPa ENE 7.9 km/h 19.3 km/h 52% 0.0 mm 183 W/m2
18:59 23.6 °C 13.2 °C 1020.7 hPa East 6.4 km/h 8 km/h 52% 0.0 mm 169 W/m2
19:04 23.4 °C 13 °C 1020.3 hPa East 1.4 km/h 19.3 km/h 52% 0.0 mm 153 W/m2
19:09 23.4 °C 13.3 °C 1020.7 hPa NE 4.7 km/h 8 km/h 53% 0.0 mm 139 W/m2
19:14 23.3 °C 13.5 °C 1020.3 hPa Calm   8 km/h 54% 0.0 mm 120 W/m2
19:19 23.2 °C 13.4 °C 1020.3 hPa SE 4.7 km/h 9.7 km/h 54% 0.0 mm 100 W/m2
19:24 23.1 °C 13.3 °C 1020.3 hPa SE 7.9 km/h 8 km/h 54% 0.0 mm 86 W/m2
19:29 22.9 °C 13.1 °C 1020.3 hPa NE 4.7 km/h 9.7 km/h 54% 0.0 mm 53 W/m2
19:34 22.7 °C 12.9 °C 1020.3 hPa ENE 1.4 km/h 14.5 km/h 54% 0.0 mm 26 W/m2
19:39 22.6 °C 13.1 °C 1020.3 hPa East 6.4 km/h 12.9 km/h 55% 0.0 mm 21 W/m2
19:44 22.3 °C 12.8 °C 1020.3 hPa East 9.7 km/h 17.7 km/h 55% 0.0 mm 19 W/m2
19:49 22.2 °C 13.3 °C 1020.3 hPa ESE 6.4 km/h 6.4 km/h 57% 0.0 mm 16 W/m2
19:54 21.9 °C 13 °C 1020.3 hPa ESE 1.4 km/h 17.7 km/h 57% 0.0 mm 14 W/m2
19:59 21.8 °C 13.4 °C 1020.3 hPa ENE 1.4 km/h 3.2 km/h 59% 0.0 mm 12 W/m2
20:04 21.4 °C 13.3 °C 1020.3 hPa SSE 1.4 km/h 4.8 km/h 60% 0.0 mm 11 W/m2
20:09 21.1 °C 13 °C 1020.3 hPa Calm   4.8 km/h 60% 0.0 mm 7 W/m2
20:14 20.8 °C 13.3 °C 1020.3 hPa East 1.4 km/h 3.2 km/h 62% 0.0 mm 5 W/m2
20:19 20.5 °C 13.2 °C 1020.3 hPa Calm   8 km/h 63% 0.0 mm 0 W/m2
20:24 20.2 °C 13.2 °C 1020.3 hPa Calm   3.2 km/h 64% 0.0 mm 0 W/m2
20:29 19.9 °C 13.1 °C 1020.3 hPa Calm   1.6 km/h 65% 0.0 mm 0 W/m2
20:34 19.7 °C 13.2 °C 1020.3 hPa ENE 1.4 km/h 1.6 km/h 66% 0.0 mm 0 W/m2
20:39 19.5 °C 13.2 °C 1020.3 hPa Calm   1.6 km/h 67% 0.0 mm 0 W/m2
20:44 19.3 °C 13.2 °C 1020.7 hPa Calm   1.6 km/h 68% 0.0 mm 0 W/m2
20:49 19.1 °C 13.3 °C 1020.3 hPa Calm   1.6 km/h 69% 0.0 mm 0 W/m2
20:54 18.8 °C 13 °C 1020.3 hPa Calm     69% 0.0 mm 0 W/m2
20:59 18.6 °C 13 °C 1020.7 hPa Calm   1.6 km/h 70% 0.0 mm 0 W/m2
21:04 18.4 °C 13 °C 1020.7 hPa ESE 1.4 km/h 1.6 km/h 71% 0.0 mm 0 W/m2
21:09 18.2 °C 13.1 °C 1020.7 hPa Calm   3.2 km/h 72% 0.0 mm 0 W/m2
21:14 17.9 °C 12.8 °C 1020.7 hPa Calm   1.6 km/h 72% 0.0 mm 0 W/m2
21:19 17.8 °C 12.9 °C 1020.7 hPa Calm   3.2 km/h 73% 0.0 mm 0 W/m2
21:25 17.7 °C 13 °C 1020.7 hPa Calm     74% 0.0 mm 0 W/m2
21:30 17.5 °C 13 °C 1020.7 hPa SE 1.4 km/h 3.2 km/h 75% 0.0 mm 0 W/m2
21:35 17.4 °C 12.9 °C 1020.7 hPa SE 1.4 km/h 1.6 km/h 75% 0.0 mm 0 W/m2
21:40 17.4 °C 12.9 °C 1020.7 hPa Calm   3.2 km/h 75% 0.0 mm 0 W/m2
21:45 17.3 °C 13 °C 1020.7 hPa SE 1.4 km/h 1.6 km/h 76% 0.0 mm 0 W/m2
21:50 17.3 °C 13 °C 1020.7 hPa SE 1.4 km/h 3.2 km/h 76% 0.0 mm 0 W/m2
21:55 17.2 °C 13.1 °C 1020.7 hPa Calm   3.2 km/h 77% 0.0 mm 0 W/m2
22:00 17.2 °C 13.1 °C 1020.7 hPa SE 1.4 km/h 3.2 km/h 77% 0.0 mm 0 W/m2
22:05 17.2 °C 13.1 °C 1020.7 hPa Calm   1.6 km/h 77% 0.0 mm 0 W/m2
22:10 17.2 °C 13.1 °C 1020.7 hPa SSE 1.4 km/h 3.2 km/h 77% 0.0 mm 0 W/m2
22:15 17.3 °C 13.2 °C 1020.7 hPa SSE 1.4 km/h 1.6 km/h 77% 0.0 mm 0 W/m2
22:20 17.2 °C 13.1 °C 1020.7 hPa SSE 1.4 km/h 3.2 km/h 77% 0.0 mm 0 W/m2
22:25 17.1 °C 13.2 °C 1020.7 hPa Calm   3.2 km/h 78% 0.0 mm 0 W/m2
22:30 16.9 °C 13 °C 1020.7 hPa SSE 1.4 km/h 1.6 km/h 78% 0.0 mm 0 W/m2
22:35 16.7 °C 13 °C 1020.7 hPa Calm   4.8 km/h 79% 0.0 mm 0 W/m2
22:40 16.6 °C 12.9 °C 1020.7 hPa SSE 1.4 km/h 1.6 km/h 79% 0.0 mm 0 W/m2
22:45 16.5 °C 13 °C 1020.7 hPa SSE 3.2 km/h 3.2 km/h 80% 0.0 mm 0 W/m2
22:50 16.3 °C 12.8 °C 1020.7 hPa SSE 1.4 km/h 1.6 km/h 80% 0.0 mm 0 W/m2
22:55 16.3 °C 13 °C 1020.7 hPa SSE 1.4 km/h 6.4 km/h 81% 0.0 mm 0 W/m2
23:00 16.3 °C 13 °C 1020.7 hPa Calm   1.6 km/h 81% 0.0 mm 0 W/m2
23:05 16.2 °C 12.9 °C 1020.7 hPa Calm   4.8 km/h 81% 0.0 mm 0 W/m2
23:10 16.2 °C 12.9 °C 1020.7 hPa SSE 1.4 km/h 1.6 km/h 81% 0.0 mm 0 W/m2
23:15 16.1 °C 13 °C 1020.7 hPa SSE 1.4 km/h 3.2 km/h 82% 0.0 mm 0 W/m2
23:20 16 °C 12.9 °C 1020.7 hPa Calm   1.6 km/h 82% 0.0 mm 0 W/m2
23:25 15.9 °C 12.8 °C 1020.7 hPa SSE 1.4 km/h 3.2 km/h 82% 0.0 mm 0 W/m2
23:30 15.9 °C 12.8 °C 1020.7 hPa Calm   1.6 km/h 82% 0.0 mm 0 W/m2
23:35 15.9 °C 12.8 °C 1020.7 hPa Calm     82% 0.0 mm 0 W/m2
23:40 15.9 °C 12.8 °C 1020.7 hPa SSE 1.4 km/h 3.2 km/h 82% 0.0 mm 0 W/m2
23:45 15.9 °C 12.8 °C 1020.7 hPa Calm   1.6 km/h 82% 0.0 mm 0 W/m2
23:50 15.9 °C 12.8 °C 1020.7 hPa Calm   1.6 km/h 82% 0.0 mm 0 W/m2
23:55 15.8 °C 12.7 °C 1020.7 hPa SSE 1.4 km/h 1.6 km/h 82% 0.0 mm 0 W/m2
Juneau County Weather
Compliments of Weather Underground - 4 mb